Time;durP1;ratioP1;P1;durP2;ratioP2;P2;SDS_P1;SDS_P2;PMS_P1;PMS_P2;Temp;Humidity;BMP_temperature;BMP_pressure;BME280_temperature;BME280_humidity;BME280_pressure;Samples;Min_cycle;Max_cycle;Signal;HPM_P1;HPM_P2
2021/07/11 00:00:56;;;;;;;;;;;;;;;;;;5063500;28;19932;-65
2021/07/11 00:03:23;;;;;;;;;;;;;;;;;;5071926;28;19935;-65
2021/07/11 00:05:50;;;;;;;;;;;;;;;;;;5062709;28;19925;-65
2021/07/11 00:08:17;;;;;;;;;;;;;;;;;;5069330;28;19924;-67
2021/07/11 00:10:44;;;;;;;;;;;;;;;;;;5069625;28;19924;-67
2021/07/11 00:13:11;;;;;;;;;;;;;;;;;;5066825;28;19948;-67
2021/07/11 00:15:38;;;;;;;;;;;;;;;;;;5062978;28;19933;-67
2021/07/11 00:18:05;;;;;;;;;;;;;;;;;;5059122;28;19929;-66
2021/07/11 00:20:32;;;;;;;;;;;;;;;;;;5059055;28;20291;-67
2021/07/11 00:22:59;;;;;;;;;;;;;;;;;;5068785;28;20300;-66
2021/07/11 00:25:26;;;;;;;;;;;;;;;;;;5067623;28;20031;-67
2021/07/11 00:27:53;;;;;;;;;;;;;;;;;;5070648;28;19924;-66
2021/07/11 00:30:20;;;;;;;;;;;;;;;;;;5067756;28;19924;-67
2021/07/11 00:32:47;;;;;;;;;;;;;;;;;;5061867;28;20016;-67
2021/07/11 00:35:14;;;;;;;;;;;;;;;;;;5063136;28;19936;-68
2021/07/11 00:37:41;;;;;;;;;;;;;;;;;;5060201;28;19925;-66
2021/07/11 00:40:08;;;;;;;;;;;;;;;;;;5055405;28;19925;-66
2021/07/11 00:42:35;;;;;;;;;;;;;;;;;;5063458;28;19939;-67
2021/07/11 00:45:02;;;;;;;;;;;;;;;;;;5069319;28;19930;-67
2021/07/11 00:47:29;;;;;;;;;;;;;;;;;;5069963;28;19936;-66
2021/07/11 00:49:56;;;;;;;;;;;;;;;;;;5067784;28;20009;-67
2021/07/11 00:52:23;;;;;;;;;;;;;;;;;;5067860;28;19924;-67
2021/07/11 00:54:50;;;;;;;;;;;;;;;;;;5069764;28;19924;-67
2021/07/11 00:57:17;;;;;;;;;;;;;;;;;;5067574;28;19924;-66
2021/07/11 00:59:44;;;;;;;;;;;;;;;;;;5063290;28;19931;-64
2021/07/11 01:02:11;;;;;;;;;;;;;;;;;;5056290;28;19925;-64
2021/07/11 01:04:37;;;;;;;;;;;;;;;;;;5064345;28;19925;-67
2021/07/11 01:07:04;;;;;;;;;;;;;;;;;;5061815;28;19924;-66
2021/07/11 01:09:31;;;;;;;;;;;;;;;;;;5062673;28;19932;-65
2021/07/11 01:11:58;;;;;;;;;;;;;;;;;;5064798;28;19928;-66
2021/07/11 01:14:25;;;;;;;;;;;;;;;;;;5069612;28;19924;-68
2021/07/11 01:16:52;;;;;;;;;;;;;;;;;;5064911;28;20385;-64
2021/07/11 01:19:19;;;;;;;;;;;;;;;;;;5066685;28;19936;-66
2021/07/11 01:21:46;;;;;;;;;;;;;;;;;;5065572;28;19933;-66
2021/07/11 01:24:14;;;;;;;;;;;;;;;;;;5062873;28;19932;-65
2021/07/11 01:26:41;;;;;;;;;;;;;;;;;;5064870;28;19978;-67
2021/07/11 01:29:08;;;;;;;;;;;;;;;;;;5056213;28;19935;-66
2021/07/11 01:31:35;;;;;;;;;;;;;;;;;;5054028;28;19925;-64
2021/07/11 01:34:02;;;;;;;;;;;;;;;;;;5069942;28;19979;-64
2021/07/11 01:36:29;;;;;;;;;;;;;;;;;;5061221;28;20012;-65
2021/07/11 01:38:56;;;;;;;;;;;;;;;;;;5059282;28;19925;-65
2021/07/11 01:41:23;;;;;;;;;;;;;;;;;;5060186;28;20015;-65
2021/07/11 01:43:49;;;;;;;;;;;;;;;;;;5062727;28;19931;-65
2021/07/11 01:46:16;;;;;;;;;;;;;;;;;;5060454;28;19931;-65
2021/07/11 01:48:43;;;;;;;;;;;;;;;;;;5061259;28;19924;-67
2021/07/11 01:51:10;;;;;;;;;;;;;;;;;;5064298;28;19928;-65
2021/07/11 01:53:37;;;;;;;;;;;;;;;;;;5068758;28;19931;-65
2021/07/11 01:56:04;;;;;;;;;;;;;;;;;;5065316;28;20016;-65
2021/07/11 01:58:31;;;;;;;;;;;;;;;;;;5057417;28;19924;-65
2021/07/11 02:00:58;;;;;;;;;;;;;;;;;;5060207;28;20166;-65
2021/07/11 02:03:25;;;;;;;;;;;;;;;;;;5059346;28;20323;-65
2021/07/11 02:05:52;;;;;;;;;;;;;;;;;;5062232;28;19928;-67
2021/07/11 02:08:19;;;;;;;;;;;;;;;;;;5069192;28;19929;-65
2021/07/11 02:10:46;;;;;;;;;;;;;;;;;;5063436;28;19925;-65
2021/07/11 02:13:13;;;;;;;;;;;;;;;;;;5060824;28;20315;-65
2021/07/11 02:15:39;;;;;;;;;;;;;;;;;;5057466;28;19929;-65
2021/07/11 02:18:06;;;;;;;;;;;;;;;;;;5060106;28;19931;-64
2021/07/11 02:20:33;;;;;;;;;;;;;;;;;;5059997;28;19931;-64
2021/07/11 02:23:00;;;;;;;;;;;;;;;;;;5065074;28;19924;-65
2021/07/11 02:25:27;;;;;;;;;;;;;;;;;;5065050;28;19925;-64
2021/07/11 02:27:54;;;;;;;;;;;;;;;;;;5065614;28;19932;-64
2021/07/11 02:30:24;;;;;;;;;;;;;;;;;;5068767;28;19943;-66
2021/07/11 02:32:51;;;;;;;;;;;;;;;;;;5067846;28;19924;-64
2021/07/11 02:35:18;;;;;;;;;;;;;;;;;;5067571;28;19939;-65
2021/07/11 02:37:45;;;;;;;;;;;;;;;;;;5068449;28;19924;-64
2021/07/11 02:40:12;;;;;;;;;;;;;;;;;;5058430;28;19970;-64
2021/07/11 02:42:38;;;;;;;;;;;;;;;;;;5059212;28;19929;-64
2021/07/11 02:45:05;;;;;;;;;;;;;;;;;;5059711;28;19925;-66
2021/07/11 02:47:33;;;;;;;;;;;;;;;;;;5067376;28;19929;-65
2021/07/11 02:50:00;;;;;;;;;;;;;;;;;;5067467;28;19968;-65
2021/07/11 02:52:27;;;;;;;;;;;;;;;;;;5061477;28;19925;-66
2021/07/11 02:54:54;;;;;;;;;;;;;;;;;;5057614;28;19924;-65
2021/07/11 02:57:21;;;;;;;;;;;;;;;;;;5063426;28;20316;-64
2021/07/11 02:59:48;;;;;;;;;;;;;;;;;;5063566;28;19932;-65
2021/07/11 03:02:15;;;;;;;;;;;;;;;;;;5062507;28;19933;-64
2021/07/11 03:04:42;;;;;;;;;;;;;;;;;;5059153;28;19947;-67
2021/07/11 03:07:09;;;;;;;;;;;;;;;;;;5067979;28;19931;-65
2021/07/11 03:09:36;;;;;;;;;;;;;;;;;;5064876;28;20550;-65
2021/07/11 03:12:03;;;;;;;;;;;;;;;;;;5057249;28;19924;-64
2021/07/11 03:14:30;;;;;;;;;;;;;;;;;;5062175;28;19925;-64
2021/07/11 03:16:57;;;;;;;;;;;;;;;;;;5061245;28;19935;-64
2021/07/11 03:19:24;;;;;;;;;;;;;;;;;;5062641;28;19931;-65
2021/07/11 03:21:51;;;;;;;;;;;;;;;;;;5066513;28;19932;-65
2021/07/11 03:24:18;;;;;;;;;;;;;;;;;;5065377;28;19924;-65
2021/07/11 03:26:45;;;;;;;;;;;;;;;;;;5055428;28;19948;-65
2021/07/11 03:29:12;;;;;;;;;;;;;;;;;;5064633;28;19924;-65
2021/07/11 03:31:39;;;;;;;;;;;;;;;;;;5064897;28;19932;-66
2021/07/11 03:34:06;;;;;;;;;;;;;;;;;;5069343;28;19925;-65
2021/07/11 03:36:33;;;;;;;;;;;;;;;;;;5070768;28;19947;-65
2021/07/11 03:39:00;;;;;;;;;;;;;;;;;;5055752;28;19924;-65
2021/07/11 03:41:27;;;;;;;;;;;;;;;;;;5061907;28;19939;-65
2021/07/11 03:43:54;;;;;;;;;;;;;;;;;;5062855;28;20408;-65
2021/07/11 03:46:21;;;;;;;;;;;;;;;;;;5070792;28;19924;-65
2021/07/11 03:48:48;;;;;;;;;;;;;;;;;;5070357;28;19925;-65
2021/07/11 03:51:15;;;;;;;;;;;;;;;;;;5062183;28;19948;-66
2021/07/11 03:53:42;;;;;;;;;;;;;;;;;;5064009;28;19925;-65
2021/07/11 03:56:09;;;;;;;;;;;;;;;;;;5064029;28;19939;-65
2021/07/11 03:58:36;;;;;;;;;;;;;;;;;;5066375;28;19933;-65
2021/07/11 04:01:03;;;;;;;;;;;;;;;;;;5061776;28;19942;-65
2021/07/11 04:03:30;;;;;;;;;;;;;;;;;;5065425;28;19929;-65
2021/07/11 04:05:56;;;;;;;;;;;;;;;;;;5067482;28;19947;-65
2021/07/11 04:08:23;;;;;;;;;;;;;;;;;;5061433;28;20014;-65
2021/07/11 04:10:50;;;;;;;;;;;;;;;;;;5064166;28;19932;-65
2021/07/11 04:13:17;;;;;;;;;;;;;;;;;;5062270;28;19932;-65
2021/07/11 04:15:44;;;;;;;;;;;;;;;;;;5066916;28;19932;-65
2021/07/11 04:18:13;;;;;;;;;;;;;;;;;;5060328;28;19932;-65
2021/07/11 04:20:40;;;;;;;;;;;;;;;;;;5067602;28;19928;-65
2021/07/11 04:23:07;;;;;;;;;;;;;;;;;;5069756;28;20296;-65
2021/07/11 04:25:34;;;;;;;;;;;;;;;;;;5067980;28;20277;-65
2021/07/11 04:28:01;;;;;;;;;;;;;;;;;;5066809;28;19924;-65
2021/07/11 04:30:28;;;;;;;;;;;;;;;;;;5066689;28;19924;-65
2021/07/11 04:32:55;;;;;;;;;;;;;;;;;;5069720;28;19924;-65
2021/07/11 04:35:22;;;;;;;;;;;;;;;;;;5067020;28;20160;-65
2021/07/11 04:37:49;;;;;;;;;;;;;;;;;;5065680;28;19924;-65
2021/07/11 04:40:16;;;;;;;;;;;;;;;;;;5068033;28;19931;-65
2021/07/11 04:42:44;;;;;;;;;;;;;;;;;;5067557;28;19924;-65
2021/07/11 04:45:10;;;;;;;;;;;;;;;;;;5067593;28;19931;-66
2021/07/11 04:47:37;;;;;;;;;;;;;;;;;;5062149;28;20319;-65
2021/07/11 04:50:04;;;;;;;;;;;;;;;;;;5067351;28;19941;-65
2021/07/11 04:52:31;;;;;;;;;;;;;;;;;;5069218;28;19924;-65
2021/07/11 04:54:58;;;;;;;;;;;;;;;;;;5061132;28;19932;-65
2021/07/11 04:57:25;;;;;;;;;;;;;;;;;;5065152;28;19925;-65
2021/07/11 04:59:52;;;;;;;;;;;;;;;;;;5062935;28;19932;-65
2021/07/11 05:02:19;;;;;;;;;;;;;;;;;;5064572;28;19959;-65
2021/07/11 05:04:46;;;;;;;;;;;;;;;;;;5067746;28;20027;-65
2021/07/11 05:07:13;;;;;;;;;;;;;;;;;;5061188;28;19947;-65
2021/07/11 05:09:40;;;;;;;;;;;;;;;;;;5060585;28;19933;-66
2021/07/11 05:12:07;;;;;;;;;;;;;;;;;;5066791;28;20384;-65
2021/07/11 05:14:34;;;;;;;;;;;;;;;;;;5058160;28;19925;-65
2021/07/11 05:17:01;;;;;;;;;;;;;;;;;;5064367;28;19935;-65
2021/07/11 05:19:28;;;;;;;;;;;;;;;;;;5064309;28;20007;-65
2021/07/11 05:21:55;;;;;;;;;;;;;;;;;;5069703;28;20400;-65
2021/07/11 05:24:22;;;;;;;;;;;;;;;;;;5065347;28;19928;-65
2021/07/11 05:26:51;;;;;;;;;;;;;;;;;;5067094;28;19929;-65
2021/07/11 05:29:18;;;;;;;;;;;;;;;;;;5067482;28;19924;-65
2021/07/11 05:31:45;;;;;;;;;;;;;;;;;;5059751;28;19924;-65
2021/07/11 05:34:12;;;;;;;;;;;;;;;;;;5067324;28;19925;-65
2021/07/11 05:36:38;;;;;;;;;;;;;;;;;;5068511;28;20115;-65
2021/07/11 05:39:05;;;;;;;;;;;;;;;;;;5064711;28;19924;-66
2021/07/11 05:41:32;;;;;;;;;;;;;;;;;;5062163;28;19932;-65
2021/07/11 05:44:00;;;;;;;;;;;;;;;;;;5067422;28;19924;-65
2021/07/11 05:46:28;;;;;;;;;;;;;;;;;;5062864;28;20207;-65
2021/07/11 05:48:55;;;;;;;;;;;;;;;;;;5068324;28;19935;-65
2021/07/11 05:51:22;;;;;;;;;;;;;;;;;;5067165;28;19924;-66
2021/07/11 05:53:49;;;;;;;;;;;;;;;;;;5063507;28;19929;-65
2021/07/11 05:56:16;;;;;;;;;;;;;;;;;;5061185;28;19946;-65
2021/07/11 05:58:43;;;;;;;;;;;;;;;;;;5064320;28;20424;-66
2021/07/11 06:01:10;;;;;;;;;;;;;;;;;;5062508;28;19932;-66
2021/07/11 06:03:37;;;;;;;;;;;;;;;;;;5064391;28;19947;-66
2021/07/11 06:06:04;;;;;;;;;;;;;;;;;;5067848;28;21268;-65
2021/07/11 06:08:31;;;;;;;;;;;;;;;;;;5067223;28;19929;-64
2021/07/11 06:10:58;;;;;;;;;;;;;;;;;;5062735;28;19932;-66
2021/07/11 06:13:25;;;;;;;;;;;;;;;;;;5066390;28;19932;-66
2021/07/11 06:15:52;;;;;;;;;;;;;;;;;;5061567;28;20384;-66
2021/07/11 06:18:19;;;;;;;;;;;;;;;;;;5064385;28;19924;-66
2021/07/11 06:20:46;;;;;;;;;;;;;;;;;;5059158;28;19929;-66
2021/07/11 06:23:13;;;;;;;;;;;;;;;;;;5063777;28;19938;-66
2021/07/11 06:25:39;;;;;;;;;;;;;;;;;;5065782;28;19925;-67
2021/07/11 06:28:06;;;;;;;;;;;;;;;;;;5063817;28;19924;-66
2021/07/11 06:30:33;;;;;;;;;;;;;;;;;;5061250;28;19939;-66
2021/07/11 06:33:00;;;;;;;;;;;;;;;;;;5068042;28;19931;-67
2021/07/11 06:35:27;;;;;;;;;;;;;;;;;;5057650;28;19924;-67
2021/07/11 06:37:54;;;;;;;;;;;;;;;;;;5061783;28;19925;-67
2021/07/11 06:40:21;;;;;;;;;;;;;;;;;;5059670;28;19929;-65
2021/07/11 06:42:48;;;;;;;;;;;;;;;;;;5063881;28;19928;-67
2021/07/11 06:45:15;;;;;;;;;;;;;;;;;;5064692;28;20297;-64
2021/07/11 06:47:42;;;;;;;;;;;;;;;;;;5059653;28;19932;-66
2021/07/11 06:50:09;;;;;;;;;;;;;;;;;;5062031;28;19924;-65
2021/07/11 06:52:36;;;;;;;;;;;;;;;;;;5068524;28;20171;-66
2021/07/11 06:55:03;;;;;;;;;;;;;;;;;;5068586;28;19931;-66
2021/07/11 06:57:30;;;;;;;;;;;;;;;;;;5057491;28;20026;-66
2021/07/11 06:59:57;;;;;;;;;;;;;;;;;;5064792;28;20134;-66
2021/07/11 07:02:24;;;;;;;;;;;;;;;;;;5060772;28;19931;-65
2021/07/11 07:04:51;;;;;;;;;;;;;;;;;;5055477;28;20385;-66
2021/07/11 07:07:18;;;;;;;;;;;;;;;;;;5065632;28;20388;-66
2021/07/11 07:09:45;;;;;;;;;;;;;;;;;;5060186;28;19924;-67
2021/07/11 07:12:12;;;;;;;;;;;;;;;;;;5069920;28;19974;-65
2021/07/11 07:14:39;;;;;;;;;;;;;;;;;;5064708;28;19932;-66
2021/07/11 07:17:06;;;;;;;;;;;;;;;;;;5062088;28;19947;-66
2021/07/11 07:19:33;;;;;;;;;;;;;;;;;;5063738;28;19925;-66
2021/07/11 07:22:00;;;;;;;;;;;;;;;;;;5070720;28;19934;-65
2021/07/11 07:24:27;;;;;;;;;;;;;;;;;;5072201;28;19924;-65
2021/07/11 07:26:54;;;;;;;;;;;;;;;;;;5064232;28;19931;-66
2021/07/11 07:29:21;;;;;;;;;;;;;;;;;;5066082;28;19929;-65
2021/07/11 07:31:48;;;;;;;;;;;;;;;;;;5060929;28;19925;-65
2021/07/11 07:34:15;;;;;;;;;;;;;;;;;;5064577;28;19925;-65
2021/07/11 07:36:42;;;;;;;;;;;;;;;;;;5061424;28;20031;-66
2021/07/11 07:39:09;;;;;;;;;;;;;;;;;;5064218;28;19942;-64
2021/07/11 07:41:36;;;;;;;;;;;;;;;;;;5063378;28;19931;-67
2021/07/11 07:44:03;;;;;;;;;;;;;;;;;;5066225;28;19971;-66
2021/07/11 07:46:30;;;;;;;;;;;;;;;;;;5070672;28;19924;-66
2021/07/11 07:48:57;;;;;;;;;;;;;;;;;;5073082;28;20023;-67
2021/07/11 07:51:24;;;;;;;;;;;;;;;;;;5067441;28;20332;-67
2021/07/11 07:53:51;;;;;;;;;;;;;;;;;;5070680;28;19928;-68
2021/07/11 07:56:18;;;;;;;;;;;;;;;;;;5069450;28;20055;-68
2021/07/11 07:58:45;;;;;;;;;;;;;;;;;;5065153;28;19924;-68
2021/07/11 08:01:12;;;;;;;;;;;;;;;;;;5065385;28;19935;-68
2021/07/11 08:03:39;;;;;;;;;;;;;;;;;;5069498;28;19948;-66
2021/07/11 08:06:05;;;;;;;;;;;;;;;;;;5064040;28;20019;-66
2021/07/11 08:08:32;;;;;;;;;;;;;;;;;;5070914;28;19928;-67
2021/07/11 08:10:59;;;;;;;;;;;;;;;;;;5065347;28;19935;-66
2021/07/11 08:13:26;;;;;;;;;;;;;;;;;;5071187;28;20297;-66
2021/07/11 08:15:53;;;;;;;;;;;;;;;;;;5063773;28;19929;-66
2021/07/11 08:18:20;;;;;;;;;;;;;;;;;;5066381;28;19925;-66
2021/07/11 08:20:47;;;;;;;;;;;;;;;;;;5060463;28;20300;-67
2021/07/11 08:23:14;;;;;;;;;;;;;;;;;;5065231;28;19940;-67
2021/07/11 08:25:41;;;;;;;;;;;;;;;;;;5064929;28;19930;-67
2021/07/11 08:28:08;;;;;;;;;;;;;;;;;;5071434;28;20015;-67
2021/07/11 08:30:35;;;;;;;;;;;;;;;;;;5064613;28;20413;-67
2021/07/11 08:33:02;;;;;;;;;;;;;;;;;;5060732;28;19928;-67
2021/07/11 08:35:29;;;;;;;;;;;;;;;;;;5069593;28;19940;-67
2021/07/11 08:37:56;;;;;;;;;;;;;;;;;;5066564;28;19930;-66
2021/07/11 08:40:23;;;;;;;;;;;;;;;;;;5069715;28;20019;-67
2021/07/11 08:42:50;;;;;;;;;;;;;;;;;;5071225;28;20454;-67
2021/07/11 08:45:17;;;;;;;;;;;;;;;;;;5068051;28;19924;-67
2021/07/11 08:47:44;;;;;;;;;;;;;;;;;;5068898;28;19925;-66
2021/07/11 08:50:11;;;;;;;;;;;;;;;;;;5066266;28;19933;-67
2021/07/11 08:52:38;;;;;;;;;;;;;;;;;;5066807;28;19936;-68
2021/07/11 08:55:04;;;;;;;;;;;;;;;;;;5065957;28;19951;-67
2021/07/11 08:57:31;;;;;;;;;;;;;;;;;;5063307;28;19931;-67
2021/07/11 08:59:58;;;;;;;;;;;;;;;;;;5062307;28;20396;-67
2021/07/11 09:02:25;;;;;;;;;;;;;;;;;;5062748;28;19925;-67
2021/07/11 09:04:52;;;;;;;;;;;;;;;;;;5065570;28;20026;-67
2021/07/11 09:07:19;;;;;;;;;;;;;;;;;;5067021;28;19924;-67
2021/07/11 09:09:46;;;;;;;;;;;;;;;;;;5061795;28;19929;-67
2021/07/11 09:12:13;;;;;;;;;;;;;;;;;;5062583;28;20024;-68
2021/07/11 09:14:40;;;;;;;;;;;;;;;;;;5064872;28;19933;-66
2021/07/11 09:17:07;;;;;;;;;;;;;;;;;;5063573;28;19935;-67
2021/07/11 09:19:34;;;;;;;;;;;;;;;;;;5066366;28;19933;-67
2021/07/11 09:22:01;;;;;;;;;;;;;;;;;;5068053;28;19928;-66
2021/07/11 09:24:29;;;;;;;;;;;;;;;;;;5068459;28;19924;-67
2021/07/11 09:26:56;;;;;;;;;;;;;;;;;;5064047;28;19932;-67
2021/07/11 09:29:22;;;;;;;;;;;;;;;;;;5063643;28;20452;-66
2021/07/11 09:31:49;;;;;;;;;;;;;;;;;;5065452;28;19924;-66
2021/07/11 09:34:16;;;;;;;;;;;;;;;;;;5068095;28;19924;-66
2021/07/11 09:36:43;;;;;;;;;;;;;;;;;;5081667;22;19931;-67
2021/07/11 09:39:10;;;;;;;;;;;;;;;;;;5062009;28;20269;-67
2021/07/11 09:41:37;;;;;;;;;;;;;;;;;;5064772;28;19932;-66
2021/07/11 09:44:04;;;;;;;;;;;;;;;;;;5070561;28;19928;-66
2021/07/11 09:46:33;;;;;;;;;;;;;;;;;;5063481;28;19924;-68
2021/07/11 09:49:00;;;;;;;;;;;;;;;;;;5064526;28;20399;-67
2021/07/11 09:51:27;;;;;;;;;;;;;;;;;;5064758;28;20019;-67
2021/07/11 09:53:54;;;;;;;;;;;;;;;;;;5064884;28;20293;-67
2021/07/11 09:56:21;;;;;;;;;;;;;;;;;;5061501;28;20091;-67
2021/07/11 09:58:48;;;;;;;;;;;;;;;;;;5062419;28;19943;-66
2021/07/11 10:01:15;;;;;;;;;;;;;;;;;;5068872;28;20283;-65
2021/07/11 10:03:42;;;;;;;;;;;;;;;;;;5062419;28;19931;-67
2021/07/11 10:06:09;;;;;;;;;;;;;;;;;;5065476;28;19935;-67
2021/07/11 10:08:36;;;;;;;;;;;;;;;;;;5060256;28;20373;-67
2021/07/11 10:11:03;;;;;;;;;;;;;;;;;;5068085;28;19955;-67
2021/07/11 10:13:30;;;;;;;;;;;;;;;;;;5073024;28;19966;-67
2021/07/11 10:15:57;;;;;;;;;;;;;;;;;;5066852;28;19932;-68
2021/07/11 10:18:24;;;;;;;;;;;;;;;;;;5067287;28;19930;-67
2021/07/11 10:20:51;;;;;;;;;;;;;;;;;;5068294;28;19925;-67
2021/07/11 10:23:18;;;;;;;;;;;;;;;;;;5061842;28;19932;-67
2021/07/11 10:25:45;;;;;;;;;;;;;;;;;;5059904;28;19932;-68
2021/07/11 10:28:12;;;;;;;;;;;;;;;;;;5065301;28;19925;-65
2021/07/11 10:30:39;;;;;;;;;;;;;;;;;;5058407;28;19934;-66
2021/07/11 10:33:06;;;;;;;;;;;;;;;;;;5062501;28;19931;-66
2021/07/11 10:35:32;;;;;;;;;;;;;;;;;;5063785;28;19931;-66
2021/07/11 10:38:00;;;;;;;;;;;;;;;;;;5065596;28;20304;-66
2021/07/11 10:40:26;;;;;;;;;;;;;;;;;;5065757;28;19932;-66
2021/07/11 10:42:53;;;;;;;;;;;;;;;;;;5060622;28;20384;-67
2021/07/11 10:45:21;;;;;;;;;;;;;;;;;;5064134;28;19924;-66
2021/07/11 10:47:48;;;;;;;;;;;;;;;;;;5063136;28;20024;-68
2021/07/11 10:50:15;;;;;;;;;;;;;;;;;;5061376;28;19925;-66
2021/07/11 10:52:42;;;;;;;;;;;;;;;;;;5065439;28;19947;-67
2021/07/11 10:55:09;;;;;;;;;;;;;;;;;;5065229;28;19928;-67
2021/07/11 10:57:36;;;;;;;;;;;;;;;;;;5064165;28;19931;-67
2021/07/11 11:00:03;;;;;;;;;;;;;;;;;;5064462;28;19924;-66
2021/07/11 11:02:30;;;;;;;;;;;;;;;;;;5066908;28;20023;-66
2021/07/11 11:04:57;;;;;;;;;;;;;;;;;;5065263;28;19931;-66
2021/07/11 11:07:24;;;;;;;;;;;;;;;;;;5064511;28;19928;-67
2021/07/11 11:09:51;;;;;;;;;;;;;;;;;;5061124;28;19931;-67
2021/07/11 11:12:18;;;;;;;;;;;;;;;;;;5063631;28;20346;-67
2021/07/11 11:14:45;;;;;;;;;;;;;;;;;;5061688;28;20376;-67
2021/07/11 11:17:12;;;;;;;;;;;;;;;;;;5062088;28;19961;-67
2021/07/11 11:19:39;;;;;;;;;;;;;;;;;;5062950;28;19934;-67
2021/07/11 11:22:06;;;;;;;;;;;;;;;;;;5064228;28;19925;-68
2021/07/11 11:24:33;;;;;;;;;;;;;;;;;;5065986;28;19925;-67
2021/07/11 11:27:00;;;;;;;;;;;;;;;;;;5062390;28;19934;-68
2021/07/11 11:29:27;;;;;;;;;;;;;;;;;;5064039;28;19925;-68
2021/07/11 11:31:54;;;;;;;;;;;;;;;;;;5060604;28;19974;-68
2021/07/11 11:34:21;;;;;;;;;;;;;;;;;;5062863;28;19924;-67
2021/07/11 11:36:49;;;;;;;;;;;;;;;;;;5061684;28;19925;-68
2021/07/11 11:39:16;;;;;;;;;;;;;;;;;;5063661;28;19924;-67
2021/07/11 11:41:43;;;;;;;;;;;;;;;;;;5063883;28;19936;-68
2021/07/11 11:44:10;;;;;;;;;;;;;;;;;;5060918;28;19928;-67
2021/07/11 11:46:36;;;;;;;;;;;;;;;;;;5063427;28;19932;-66
2021/07/11 11:49:03;;;;;;;;;;;;;;;;;;5066684;28;19939;-66
2021/07/11 11:51:30;;;;;;;;;;;;;;;;;;5061118;28;19935;-65
2021/07/11 11:53:57;;;;;;;;;;;;;;;;;;5062279;28;19925;-66
2021/07/11 11:56:24;;;;;;;;;;;;;;;;;;5066821;28;19925;-66
2021/07/11 11:58:51;;;;;;;;;;;;;;;;;;5067782;28;19925;-68
2021/07/11 12:01:18;;;;;;;;;;;;;;;;;;5066069;28;19924;-68
2021/07/11 12:03:45;;;;;;;;;;;;;;;;;;5066356;28;19928;-68
2021/07/11 12:06:12;;;;;;;;;;;;;;;;;;5066012;28;19943;-67
2021/07/11 12:08:39;;;;;;;;;;;;;;;;;;5071806;28;19935;-68
2021/07/11 12:11:06;;;;;;;;;;;;;;;;;;5068776;28;19925;-69
2021/07/11 12:13:33;;;;;;;;;;;;;;;;;;5065647;28;19931;-68
2021/07/11 12:16:00;;;;;;;;;;;;;;;;;;5066766;28;20331;-68
2021/07/11 12:18:27;;;;;;;;;;;;;;;;;;5067931;28;19925;-68
2021/07/11 12:20:55;;;;;;;;;;;;;;;;;;5065269;28;19955;-68
2021/07/11 12:23:23;;;;;;;;;;;;;;;;;;5066175;28;19925;-68
2021/07/11 12:25:50;;;;;;;;;;;;;;;;;;5064760;28;19925;-68
2021/07/11 12:28:19;;;;;;;;;;;;;;;;;;5062409;28;20394;-67
2021/07/11 12:30:46;;;;;;;;;;;;;;;;;;5065556;28;19976;-68
2021/07/11 12:33:13;;;;;;;;;;;;;;;;;;5067854;28;19924;-68
2021/07/11 12:35:40;;;;;;;;;;;;;;;;;;5064960;28;19932;-68
2021/07/11 12:38:07;;;;;;;;;;;;;;;;;;5068205;28;19928;-67
2021/07/11 12:40:34;;;;;;;;;;;;;;;;;;5064426;28;20015;-68
2021/07/11 12:43:01;;;;;;;;;;;;;;;;;;5066216;28;19936;-68
2021/07/11 12:45:28;;;;;;;;;;;;;;;;;;5065021;28;19931;-68
2021/07/11 12:47:55;;;;;;;;;;;;;;;;;;5063164;28;19924;-68
2021/07/11 12:50:22;;;;;;;;;;;;;;;;;;5061879;28;20167;-66
2021/07/11 12:52:49;;;;;;;;;;;;;;;;;;5065341;28;19943;-67
2021/07/11 12:55:16;;;;;;;;;;;;;;;;;;5067333;28;20309;-66
2021/07/11 12:57:43;;;;;;;;;;;;;;;;;;5065355;28;19924;-69
2021/07/11 13:00:10;;;;;;;;;;;;;;;;;;5067823;28;19931;-67
2021/07/11 13:02:38;;;;;;;;;;;;;;;;;;5067453;28;19939;-67
2021/07/11 13:05:05;;;;;;;;;;;;;;;;;;5063826;28;19933;-67
2021/07/11 13:07:32;;;;;;;;;;;;;;;;;;5060954;28;19980;-67
2021/07/11 13:09:59;;;;;;;;;;;;;;;;;;5064239;28;20399;-66
2021/07/11 13:12:27;;;;;;;;;;;;;;;;;;5068571;28;19992;-67
2021/07/11 13:14:54;;;;;;;;;;;;;;;;;;5067301;28;19928;-67
2021/07/11 13:17:21;;;;;;;;;;;;;;;;;;5065282;28;19948;-66
2021/07/11 13:19:48;;;;;;;;;;;;;;;;;;5064866;28;19925;-67
2021/07/11 13:22:14;;;;;;;;;;;;;;;;;;5064158;28;19925;-66
2021/07/11 13:24:41;;;;;;;;;;;;;;;;;;5063628;28;19939;-66
2021/07/11 13:27:08;;;;;;;;;;;;;;;;;;5066455;28;19948;-65
2021/07/11 13:29:35;;;;;;;;;;;;;;;;;;5062160;28;19925;-66
2021/07/11 13:32:02;;;;;;;;;;;;;;;;;;5064863;28;19939;-67
2021/07/11 13:34:29;;;;;;;;;;;;;;;;;;5062675;28;19929;-66
2021/07/11 13:36:56;;;;;;;;;;;;;;;;;;5064216;28;19931;-66
2021/07/11 13:39:23;;;;;;;;;;;;;;;;;;5063485;28;19935;-65
2021/07/11 13:41:50;;;;;;;;;;;;;;;;;;5062752;28;19925;-67
2021/07/11 13:44:17;;;;;;;;;;;;;;;;;;5064764;28;20355;-65
2021/07/11 13:46:44;;;;;;;;;;;;;;;;;;5062487;28;19937;-66
2021/07/11 13:49:11;;;;;;;;;;;;;;;;;;5062487;28;19932;-66
2021/07/11 13:51:38;;;;;;;;;;;;;;;;;;5064659;28;20377;-66
2021/07/11 13:54:05;;;;;;;;;;;;;;;;;;5056267;28;19955;-66
2021/07/11 13:56:32;;;;;;;;;;;;;;;;;;5067756;28;19931;-67
2021/07/11 13:58:59;;;;;;;;;;;;;;;;;;5061740;28;19933;-65
2021/07/11 14:01:26;;;;;;;;;;;;;;;;;;5064513;28;20016;-65
2021/07/11 14:03:53;;;;;;;;;;;;;;;;;;5067068;28;19933;-67
2021/07/11 14:06:20;;;;;;;;;;;;;;;;;;5066201;28;19931;-67
2021/07/11 14:08:47;;;;;;;;;;;;;;;;;;5063621;28;19925;-67
2021/07/11 14:11:14;;;;;;;;;;;;;;;;;;5065621;28;20027;-66
2021/07/11 14:13:41;;;;;;;;;;;;;;;;;;5063165;28;19925;-67
2021/07/11 14:16:08;;;;;;;;;;;;;;;;;;5059217;28;19929;-66
2021/07/11 14:18:35;;;;;;;;;;;;;;;;;;5061634;28;19931;-66
2021/07/11 14:21:02;;;;;;;;;;;;;;;;;;5065343;28;19925;-66
2021/07/11 14:23:29;;;;;;;;;;;;;;;;;;5067289;28;19932;-67
2021/07/11 14:25:56;;;;;;;;;;;;;;;;;;5061510;28;19925;-66
2021/07/11 14:28:25;;;;;;;;;;;;;;;;;;5061510;28;19928;-66
2021/07/11 14:30:52;;;;;;;;;;;;;;;;;;5059973;28;19940;-66
2021/07/11 14:33:19;;;;;;;;;;;;;;;;;;5066110;28;19928;-65
2021/07/11 14:35:46;;;;;;;;;;;;;;;;;;5062988;28;19935;-66
2021/07/11 14:38:13;;;;;;;;;;;;;;;;;;5064283;28;19968;-65
2021/07/11 14:40:40;;;;;;;;;;;;;;;;;;5065700;28;19929;-65
2021/07/11 14:43:07;;;;;;;;;;;;;;;;;;5061547;28;19925;-66
2021/07/11 14:45:34;;;;;;;;;;;;;;;;;;5064839;28;20300;-65
2021/07/11 14:48:01;;;;;;;;;;;;;;;;;;5061997;28;19932;-66
2021/07/11 14:50:28;;;;;;;;;;;;;;;;;;5059737;28;19936;-66
2021/07/11 14:52:55;;;;;;;;;;;;;;;;;;5059840;28;20400;-65
2021/07/11 14:55:22;;;;;;;;;;;;;;;;;;5060348;28;19931;-66
2021/07/11 14:57:49;;;;;;;;;;;;;;;;;;5062208;28;19936;-66
2021/07/11 15:00:17;;;;;;;;;;;;;;;;;;5060528;28;20416;-66
2021/07/11 15:02:44;;;;;;;;;;;;;;;;;;5061834;28;19955;-64
2021/07/11 15:05:11;;;;;;;;;;;;;;;;;;5067019;28;20269;-65
2021/07/11 15:07:38;;;;;;;;;;;;;;;;;;5061589;28;19932;-66
2021/07/11 15:10:05;;;;;;;;;;;;;;;;;;5064793;28;19924;-67
2021/07/11 15:12:32;;;;;;;;;;;;;;;;;;5066441;28;20105;-64
2021/07/11 15:14:58;;;;;;;;;;;;;;;;;;5064519;28;19933;-66
2021/07/11 15:17:27;;;;;;;;;;;;;;;;;;5062830;28;19924;-66
2021/07/11 15:19:54;;;;;;;;;;;;;;;;;;5065134;28;20024;-66
2021/07/11 15:22:21;;;;;;;;;;;;;;;;;;5063287;28;20154;-66
2021/07/11 15:24:48;;;;;;;;;;;;;;;;;;5066184;28;20312;-66
2021/07/11 15:27:15;;;;;;;;;;;;;;;;;;5062160;28;19946;-66
2021/07/11 15:29:42;;;;;;;;;;;;;;;;;;5067204;28;19925;-67
2021/07/11 15:32:11;;;;;;;;;;;;;;;;;;5070302;28;19931;-66
2021/07/11 15:34:38;;;;;;;;;;;;;;;;;;5066942;28;19929;-66
2021/07/11 15:37:05;;;;;;;;;;;;;;;;;;5073525;22;20400;-67
2021/07/11 15:39:32;;;;;;;;;;;;;;;;;;5050262;28;19924;-67
2021/07/11 15:41:59;;;;;;;;;;;;;;;;;;5051252;28;19940;-67
2021/07/11 15:44:26;;;;;;;;;;;;;;;;;;5050504;28;19947;-67
2021/07/11 15:46:53;;;;;;;;;;;;;;;;;;5051685;28;19929;-67
2021/07/11 15:49:20;;;;;;;;;;;;;;;;;;5048878;28;19988;-67
2021/07/11 15:51:47;;;;;;;;;;;;;;;;;;5051376;28;19924;-67
2021/07/11 15:54:13;;;;;;;;;;;;;;;;;;5049294;28;19931;-67
2021/07/11 15:56:40;;;;;;;;;;;;;;;;;;5049199;28;20019;-67
2021/07/11 15:59:07;;;;;;;;;;;;;;;;;;5050916;28;20419;-67
2021/07/11 16:01:34;;;;;;;;;;;;;;;;;;5047457;28;19940;-67
2021/07/11 16:04:01;;;;;;;;;;;;;;;;;;5049820;28;20163;-68
2021/07/11 16:06:28;;;;;;;;;;;;;;;;;;5043838;28;20242;-67
2021/07/11 16:08:55;;;;;;;;;;;;;;;;;;5048888;28;20343;-68
2021/07/11 16:11:22;;;;;;;;;;;;;;;;;;5049477;28;19979;-67
2021/07/11 16:13:49;;;;;;;;;;;;;;;;;;5050143;28;20355;-67
2021/07/11 16:16:16;;;;;;;;;;;;;;;;;;5051990;28;19924;-67
2021/07/11 16:18:43;;;;;;;;;;;;;;;;;;5051958;28;19928;-68
2021/07/11 16:21:10;;;;;;;;;;;;;;;;;;5048064;28;19929;-69
2021/07/11 16:23:37;;;;;;;;;;;;;;;;;;5048409;28;19933;-67
2021/07/11 16:26:04;;;;;;;;;;;;;;;;;;5049203;28;19931;-67
2021/07/11 16:28:31;;;;;;;;;;;;;;;;;;5049626;28;19925;-67
2021/07/11 16:30:58;;;;;;;;;;;;;;;;;;5046967;28;19935;-67
2021/07/11 16:33:25;;;;;;;;;;;;;;;;;;5051044;28;19931;-67
2021/07/11 16:35:54;;;;;;;;;;;;;;;;;;5045945;28;19925;-67
2021/07/11 16:38:21;;;;;;;;;;;;;;;;;;5047751;28;21256;-67
2021/07/11 16:40:50;;;;;;;;;;;;;;;;;;5047736;28;20115;-67
2021/07/11 16:43:17;;;;;;;;;;;;;;;;;;5049352;28;19924;-67